Time;durP1;ratioP1;P1;durP2;ratioP2;P2;SDS_P1;SDS_P2;PMS_P1;PMS_P2;Temp;Humidity;BMP_temperature;BMP_pressure;BME280_temperature;BME280_humidity;BME280_pressure;Samples;Min_cycle;Max_cycle;Signal;HPM_P1;HPM_P2
2023/01/17 00:01:06;;;;;;;30.83;22.53;;;;;;;9.90;100.00;-2782.94;5071112;28;20209;-58
2023/01/17 00:09:51;;;;;;;34.80;21.60;;;;;;;9.99;100.00;-3101.81;5071179;28;20180;-59
2023/01/17 00:11:49;;;;;;;30.40;19.43;;;;;;;10.04;100.00;-1187.59;5071227;28;20490;-58
2023/01/17 00:14:17;;;;;;;37.97;20.57;;;;;;;10.01;100.00;408.28;5071399;28;20176;-58
2023/01/17 00:16:44;;;;;;;30.80;20.73;;;;;;;10.13;100.00;728.31;5071373;28;20188;-60
2023/01/17 01:33:51;;;;;;;15.10;13.63;;;;;;;9.60;100.00;6473.75;5074016;28;20281;-60
2023/01/17 01:36:20;;;;;;;26.20;17.43;;;;;;;9.73;100.00;7115.16;5073592;28;20189;-59
2023/01/17 01:38:49;;;;;;;19.67;16.70;;;;;;;9.79;100.00;10315.78;5073485;28;20187;-60
2023/01/17 01:41:16;;;;;;;24.67;17.63;;;;;;;9.77;100.00;11916.28;5073809;28;20288;-59
2023/01/17 01:43:46;;;;;;;19.17;15.90;;;;;;;9.73;100.00;13196.53;5073831;28;20635;-59
2023/01/17 01:46:15;;;;;;;22.03;16.40;;;;;;;9.80;100.00;13839.28;5073747;28;20192;-59
2023/01/17 01:48:47;;;;;;;16.27;14.60;;;;;;;9.84;100.00;14802.00;5073342;28;20184;-59
2023/01/17 01:51:17;;;;;;;12.07;10.97;;;;;;;9.61;100.00;12553.03;5073659;28;20211;-58
2023/01/17 01:53:48;;;;;;;9.73;8.73;;;;;;;9.89;100.00;15444.88;5073268;28;20192;-58
2023/01/17 01:56:16;;;;;;;8.57;8.07;;;;;;;10.28;100.00;25096.84;5073566;28;20191;-59
2023/01/17 01:58:48;;;;;;;10.33;9.43;;;;;;;10.46;100.00;34453.13;5073132;28;20185;-59
2023/01/17 02:01:16;;;;;;;9.77;9.17;;;;;;;10.52;100.00;39302.84;5073458;28;20602;-58
2023/01/17 02:03:43;;;;;;;9.77;9.17;;;;;;;10.53;100.00;40597.38;5072780;28;20193;-59
2023/01/17 02:06:24;;;;;;;10.17;9.47;;;;;;;10.66;100.00;42547.91;5073117;28;20181;-59
2023/01/17 02:08:53;;;;;;;10.53;9.80;;;;;;;10.71;100.00;48058.88;5073324;28;20563;-58
2023/01/17 02:11:22;;;;;;;9.93;9.33;;;;;;;10.75;100.00;50008.38;5073197;28;20185;-58
2023/01/17 02:13:48;;;;;;;9.50;8.90;;;;;;;10.79;100.00;51959.28;5073145;28;20623;-59
2023/01/17 02:16:33;;;;;;;10.10;9.40;;;;;;;10.80;100.00;54234.06;5073160;28;20556;-59
2023/01/17 02:19:21;;;;;;;10.00;9.37;;;;;;;10.78;100.00;56506.56;5073114;28;20185;-59
2023/01/17 02:22:02;;;;;;;10.33;9.73;;;;;;;10.74;100.00;54877.69;5072546;28;20201;-59
2023/01/17 02:25:02;;;;;;;11.00;10.40;;;;;;;10.66;100.00;53246.09;5072682;28;20181;-59
2023/01/17 02:27:41;;;;;;;11.97;11.03;;;;;;;10.52;100.00;52260.25;5072425;28;20193;-59
2023/01/17 02:30:33;;;;;;;11.60;10.80;;;;;;;10.42;100.00;51277.38;5072544;28;20184;-59
2023/01/17 02:33:25;;;;;;;12.13;11.23;;;;;;;10.53;100.00;48368.34;5072676;28;20567;-60
2023/01/17 02:36:04;;;;;;;11.20;10.20;;;;;;;10.49;100.00;48040.81;5065675;28;20204;-59
2023/01/17 02:38:39;;;;;;;11.50;10.70;;;;;;;10.32;100.00;45435.63;5072631;28;20631;-58
2023/01/17 02:41:09;;;;;;;11.93;11.03;;;;;;;10.27;100.00;43166.06;5072244;28;20204;-58
2023/01/17 02:43:38;;;;;;;12.30;11.40;;;;;;;10.25;100.00;37991.66;5072315;28;20184;-60
2023/01/17 02:46:06;;;;;;;13.53;12.23;;;;;;;10.43;100.00;35097.22;5072692;28;20650;-60
2023/01/17 02:48:36;;;;;;;11.83;11.13;;;;;;;10.39;100.00;36386.28;5072283;28;20189;-58
2023/01/17 02:51:19;;;;;;;16.17;11.10;;;;;;;10.51;100.00;38332.41;5072386;28;20571;-60
2023/01/17 02:54:00;;;;;;;11.90;10.93;;;;;;;10.44;100.00;53875.91;5072406;28;20184;-59
2023/01/17 02:56:41;;;;;;;11.67;10.70;;;;;;;10.22;100.00;55153.25;5072088;28;20188;-59
2023/01/17 02:59:16;;;;;;;11.57;10.67;;;;;;;10.19;100.00;63927.78;5072092;28;20189;-58
2023/01/17 03:01:58;;;;;;;17.83;11.13;;;;;;;9.78;100.00;57707.97;5072374;28;20201;-60
2023/01/17 03:04:32;;;;;;;13.50;12.40;;;;;;;9.74;100.00;30542.22;5071894;28;20184;-60
2023/01/17 03:07:03;;;;;;;11.83;10.83;;;;;;;9.71;100.00;23463.53;5072143;28;20631;-58
2023/01/17 03:09:31;;;;;;;14.37;11.97;;;;;;;9.59;100.00;25065.38;5071850;28;20196;-59
2023/01/17 03:11:59;;;;;;;16.50;12.17;;;;;;;9.72;100.00;21536.19;5071758;28;20216;-59
2023/01/17 03:14:26;;;;;;;12.03;10.93;;;;;;;9.61;100.00;22174.44;5071725;28;20185;-60
2023/01/17 03:16:54;;;;;;;14.57;11.17;;;;;;;9.59;100.00;17680.28;5070889;28;20196;-59
2023/01/17 03:19:21;;;;;;;12.67;11.30;;;;;;;9.67;100.00;13835.66;5071652;28;20191;-59
2023/01/17 03:21:48;;;;;;;12.30;11.23;;;;;;;9.81;100.00;11597.00;5071756;28;20276;-60
2023/01/17 03:24:15;;;;;;;11.77;10.77;;;;;;;9.77;100.00;10635.47;5071453;28;20188;-59
2023/01/17 03:26:43;;;;;;;11.77;10.53;;;;;;;10.02;100.00;8720.16;5071890;28;20650;-59
2023/01/17 03:29:10;;;;;;;13.00;11.80;;;;;;;9.92;100.00;12240.47;5071555;28;20196;-58
2023/01/17 03:31:37;;;;;;;14.80;10.70;;;;;;;10.06;100.00;12564.34;5071454;28;20181;-60
2023/01/17 03:34:05;;;;;;;10.80;10.00;;;;;;;10.14;100.00;11284.56;5071320;28;20428;-59
2023/01/17 03:36:32;;;;;;;11.77;10.93;;;;;;;10.14;100.00;8402.25;5071431;28;20184;-59
2023/01/17 03:38:59;;;;;;;11.33;10.63;;;;;;;10.19;100.00;7442.81;5071392;28;20555;-59
2023/01/17 03:41:26;;;;;;;11.00;10.10;;;;;;;10.40;100.00;8727.34;5071362;28;20216;-59
2023/01/17 03:43:53;;;;;;;12.07;11.13;;;;;;;10.30;100.00;15777.97;5071377;28;20195;-59
2023/01/17 03:46:21;;;;;;;11.17;10.27;;;;;;;10.21;100.00;16416.97;5071408;28;20196;-59
2023/01/17 03:48:48;;;;;;;10.70;9.80;;;;;;;10.27;100.00;15135.31;5071265;28;20188;-60
2023/01/17 03:51:17;;;;;;;11.60;10.00;;;;;;;10.31;100.00;11929.50;5071332;28;20201;-59
2023/01/17 03:53:45;;;;;;;11.50;10.30;;;;;;;10.41;100.00;12573.34;5071590;28;20189;-59
2023/01/17 03:56:12;;;;;;;11.23;10.53;;;;;;;10.26;100.00;18987.38;5071301;28;20188;-59
2023/01/17 03:58:39;;;;;;;11.70;10.47;;;;;;;10.06;100.00;20264.78;5070103;28;20271;-58
2023/01/17 04:01:06;;;;;;;11.20;10.30;;;;;;;10.11;100.00;17376.69;5071200;28;20189;-58
2023/01/17 04:03:33;;;;;;;11.13;10.10;;;;;;;10.15;100.00;12887.19;5071658;28;20211;-59
2023/01/17 04:06:00;;;;;;;11.60;10.57;;;;;;;10.20;100.00;8723.56;5071346;28;20181;-59
2023/01/17 04:08:29;;;;;;;11.00;10.17;;;;;;;10.28;100.00;9045.25;5071476;28;20192;-58
2023/01/17 04:10:56;;;;;;;10.97;10.07;;;;;;;10.26;100.00;8404.53;5071400;28;20288;-59
2023/01/17 04:13:23;;;;;;;10.13;9.33;;;;;;;10.41;100.00;7766.91;5071617;28;20192;-61
2023/01/17 04:15:51;;;;;;;9.67;9.10;;;;;;;10.29;100.00;8405.00;5071291;28;20181;-59
2023/01/17 04:18:19;;;;;;;13.73;10.47;;;;;;;10.26;100.00;10326.06;5071222;28;20185;-60
2023/01/17 04:20:46;;;;;;;9.93;9.23;;;;;;;10.21;100.00;6483.22;5070977;28;20189;-59
2023/01/17 04:23:13;;;;;;;12.03;10.80;;;;;;;10.06;100.00;6161.06;5070977;28;20205;-59
2023/01/17 04:25:41;;;;;;;11.70;10.80;;;;;;;10.10;100.00;7121.38;5071361;28;20184;-59
2023/01/17 04:28:08;;;;;;;13.87;10.57;;;;;;;10.18;100.00;8402.91;5073826;28;20192;-59
2023/01/17 04:30:35;;;;;;;10.63;9.80;;;;;;;10.22;100.00;9364.28;5074822;28;20275;-59
2023/01/17 04:33:03;;;;;;;12.50;11.53;;;;;;;10.28;100.00;9685.81;5074848;28;20227;-59
2023/01/17 04:35:32;;;;;;;10.80;10.00;;;;;;;10.30;100.00;10647.44;5074686;28;20228;-59
2023/01/17 04:37:59;;;;;;;10.47;9.57;;;;;;;10.35;100.00;12892.44;5075012;28;20567;-59
2023/01/17 04:40:26;;;;;;;9.77;8.90;;;;;;;10.33;100.00;13854.03;5074979;28;20189;-60
2023/01/17 04:42:54;;;;;;;9.70;9.00;;;;;;;10.29;100.00;15456.91;5074542;28;20208;-60
2023/01/17 04:45:21;;;;;;;10.53;9.57;;;;;;;10.31;100.00;12891.41;5074524;28;20196;-59
2023/01/17 04:47:48;;;;;;;12.23;9.67;;;;;;;10.36;100.00;12572.06;5074534;28;20192;-59
2023/01/17 04:50:15;;;;;;;9.13;8.43;;;;;;;10.40;100.00;11931.84;5074810;28;20615;-59
2023/01/17 04:52:42;;;;;;;9.43;8.70;;;;;;;10.56;100.00;10012.16;5074389;28;20180;-59
2023/01/17 04:55:09;;;;;;;10.30;9.23;;;;;;;10.66;100.00;12258.75;5074895;28;20192;-59
2023/01/17 04:57:36;;;;;;;9.43;8.83;;;;;;;10.70;100.00;18039.00;5074603;28;20629;-58
2023/01/17 05:00:05;;;;;;;9.93;8.70;;;;;;;10.73;100.00;23507.41;5074273;28;20188;-59
2023/01/17 05:02:32;;;;;;;9.27;8.47;;;;;;;10.68;100.00;27370.00;5074147;28;20204;-59
2023/01/17 05:04:59;;;;;;;10.33;9.63;;;;;;;10.54;100.00;24786.94;5074131;28;20662;-59
2023/01/17 05:07:26;;;;;;;11.43;10.70;;;;;;;10.47;100.00;22209.50;5074183;28;20181;-60
2023/01/17 05:09:53;;;;;;;12.73;11.57;;;;;;;10.40;100.00;18992.47;5074288;28;20520;-58
2023/01/17 05:12:20;;;;;;;12.13;10.93;;;;;;;10.39;100.00;15459.81;5074250;28;20188;-58
2023/01/17 05:14:47;;;;;;;13.50;10.83;;;;;;;10.34;100.00;11609.81;5074360;28;20208;-58
2023/01/17 05:17:15;;;;;;;12.37;11.47;;;;;;;10.55;100.00;10973.53;5074163;28;20643;-59
2023/01/17 05:19:42;;;;;;;10.43;9.43;;;;;;;10.48;100.00;14499.91;5074217;28;20185;-59
2023/01/17 05:22:14;;;;;;;15.00;11.60;;;;;;;10.60;100.00;11615.84;5073959;28;20288;-60
2023/01/17 05:24:42;;;;;;;10.23;9.50;;;;;;;10.39;100.00;14176.47;5073775;28;20181;-58
2023/01/17 05:27:09;;;;;;;10.67;8.37;;;;;;;10.58;100.00;8410.50;5074059;28;20188;-60
2023/01/17 05:29:37;;;;;;;9.80;9.20;;;;;;;10.73;100.00;8413.34;5073686;28;20183;-59
2023/01/17 05:32:04;;;;;;;9.87;9.27;;;;;;;10.84;100.00;9697.59;5073940;28;20548;-60
2023/01/17 05:34:33;;;;;;;9.00;8.00;;;;;;;10.80;100.00;12262.28;5073812;28;20224;-59
2023/01/17 05:37:00;;;;;;;10.90;9.90;;;;;;;10.90;100.00;16117.81;5073822;28;20615;-59
2023/01/17 05:39:29;;;;;;;9.13;8.53;;;;;;;10.93;100.00;10340.84;5072828;28;20624;-59
2023/01/17 05:41:59;;;;;;;8.03;7.33;;;;;;;10.93;100.00;7135.19;5073651;28;20228;-59
2023/01/17 05:44:27;;;;;;;8.77;8.13;;;;;;;11.02;100.00;4894.25;5073510;28;20295;-59
2023/01/17 05:46:54;;;;;;;8.63;7.80;;;;;;;11.10;100.00;5215.66;5073279;28;20238;-58
2023/01/17 05:49:21;;;;;;;9.37;8.73;;;;;;;11.13;100.00;6497.59;5073327;28;20269;-60
2023/01/17 05:51:50;;;;;;;11.10;8.90;;;;;;;11.28;100.00;8744.28;5073342;28;20196;-59
2023/01/17 05:54:17;;;;;;;9.40;8.20;;;;;;;11.33;100.00;11954.56;5073334;28;20185;-58
2023/01/17 05:56:44;;;;;;;10.93;9.17;;;;;;;11.33;100.00;15166.78;5073501;28;20651;-59
2023/01/17 05:59:11;;;;;;;9.93;7.77;;;;;;;11.37;100.00;14525.34;5073167;28;20187;-59
2023/01/17 06:01:38;;;;;;;9.83;8.73;;;;;;;11.29;100.00;11953.47;5073024;28;20196;-58
2023/01/17 06:04:05;;;;;;;9.30;8.60;;;;;;;11.44;100.00;11636.19;5073118;28;20192;-58
2023/01/17 06:06:31;;;;;;;9.50;8.50;;;;;;;11.48;100.00;13243.03;5073395;28;20628;-60
2023/01/17 06:09:00;;;;;;;12.43;8.00;;;;;;;11.55;100.00;10675.38;5072945;28;20184;-59
2023/01/17 06:11:27;;;;;;;14.53;8.60;;;;;;;11.71;100.00;12606.34;5073306;28;20196;-59
2023/01/17 06:13:53;;;;;;;10.03;9.03;;;;;;;11.73;100.00;14213.97;5071676;28;20184;-60
2023/01/17 06:16:20;;;;;;;11.50;8.33;;;;;;;11.83;100.00;14538.41;5073130;28;20189;-60
2023/01/17 06:18:47;;;;;;;10.57;9.43;;;;;;;11.90;100.00;14540.56;5072844;28;20189;-60
2023/01/17 06:21:14;;;;;;;10.00;8.87;;;;;;;11.96;100.00;14863.69;5071846;28;20185;-60
2023/01/17 06:23:41;;;;;;;8.63;7.73;;;;;;;12.00;100.00;11649.53;5072743;28;20520;-60
2023/01/17 06:26:11;;;;;;;12.33;7.83;;;;;;;12.01;100.00;9400.63;5072970;28;20618;-60
2023/01/17 06:28:38;;;;;;;9.30;7.23;;;;;;;12.06;100.00;5549.56;5072564;28;20192;-60
2023/01/17 06:31:09;;;;;;;6.70;6.23;;;;;;;11.98;100.00;2342.09;5072759;28;20528;-61
2023/01/17 06:33:36;;;;;;;13.87;6.03;;;;;;;12.09;100.00;740.81;5072429;28;20675;-60
2023/01/17 06:36:03;;;;;;;8.63;6.23;;;;;;;12.18;100.00;1702.78;5072736;28;20188;-57
2023/01/17 06:38:30;;;;;;;14.10;6.50;;;;;;;12.24;100.00;2023.84;5072437;28;20195;-57
2023/01/17 06:40:59;;;;;;;6.80;6.30;;;;;;;12.33;100.00;4269.78;5072264;28;20193;-57
2023/01/17 06:43:32;;;;;;;10.53;5.93;;;;;;;12.23;100.00;5551.91;5072299;28;20300;-57
2023/01/17 06:45:59;;;;;;;16.67;7.63;;;;;;;12.45;100.00;6839.34;5072211;28;20181;-58
2023/01/17 06:48:26;;;;;;;7.53;6.83;;;;;;;12.63;100.00;8770.47;5072577;28;20189;-58
2023/01/17 06:50:53;;;;;;;7.17;6.47;;;;;;;12.75;100.00;11989.28;5072093;28;20192;-58
2023/01/17 06:53:20;;;;;;;12.17;6.87;;;;;;;12.77;100.00;14887.47;5070993;28;20228;-57
2023/01/17 06:55:47;;;;;;;6.47;6.03;;;;;;;12.81;100.00;16177.41;5071251;28;20634;-58
2023/01/17 06:58:13;;;;;;;10.33;6.20;;;;;;;12.93;100.00;18760.72;5072137;28;20255;-60
2023/01/17 07:00:42;;;;;;;6.83;6.27;;;;;;;13.07;100.00;22316.47;5072119;28;20648;-59
2023/01/17 07:03:17;;;;;;;7.70;6.20;;;;;;;13.15;100.00;25875.22;5071541;28;20211;-57
2023/01/17 07:05:44;;;;;;;18.00;6.87;;;;;;;13.26;100.00;29763.91;5072033;28;20188;-59
2023/01/17 07:08:11;;;;;;;10.17;7.07;;;;;;;13.34;100.00;31387.56;5071562;28;20181;-61
2023/01/17 07:10:38;;;;;;;8.33;5.83;;;;;;;13.35;100.00;34305.19;5071908;28;20658;-60
2023/01/17 07:13:04;;;;;;;6.67;5.67;;;;;;;13.42;100.00;38528.41;5071519;28;20183;-60
2023/01/17 07:15:31;;;;;;;10.53;6.87;;;;;;;13.49;100.00;40482.41;5071328;28;20587;-60
2023/01/17 07:18:02;;;;;;;14.40;6.97;;;;;;;13.54;100.00;42436.84;5071189;28;20191;-60
2023/01/17 07:20:29;;;;;;;9.37;7.90;;;;;;;13.62;100.00;44720.16;5071172;28;20561;-60
2023/01/17 07:22:56;;;;;;;16.50;7.53;;;;;;;13.61;100.00;47323.88;5071281;28;20695;-61
2023/01/17 07:25:23;;;;;;;22.97;8.03;;;;;;;13.50;100.00;48942.88;5070005;28;20181;-59
2023/01/17 07:27:53;;;;;;;11.97;6.47;;;;;;;13.49;100.00;47313.94;5071717;28;20650;-60
2023/01/17 07:30:20;;;;;;;9.43;6.73;;;;;;;13.42;100.00;46331.13;5071642;28;20689;-59
2023/01/17 07:32:52;;;;;;;9.00;6.83;;;;;;;13.42;100.00;44378.75;5070156;28;20284;-61
2023/01/17 07:35:21;;;;;;;10.60;6.13;;;;;;;13.24;100.00;41114.97;5071079;28;20243;-61
2023/01/17 07:37:48;;;;;;;15.20;7.43;;;;;;;13.35;100.00;40472.75;5071536;28;20177;-60
2023/01/17 07:40:16;;;;;;;10.13;6.70;;;;;;;13.27;100.00;36895.94;5071205;28;20289;-61
2023/01/17 07:42:43;;;;;;;9.23;5.73;;;;;;;13.26;100.00;32355.38;5071075;28;20299;-60
2023/01/17 07:45:11;;;;;;;9.13;6.63;;;;;;;13.28;100.00;31384.19;5071055;28;20188;-60
2023/01/17 07:47:39;;;;;;;7.57;6.00;;;;;;;13.30;100.00;32357.13;5069831;28;20778;-60
2023/01/17 07:50:07;;;;;;;11.20;7.47;;;;;;;13.40;100.00;33660.00;5071437;28;20212;-60
2023/01/17 07:52:35;;;;;;;11.97;6.43;;;;;;;13.26;100.00;32355.38;5071002;28;20192;-60
2023/01/17 07:55:02;;;;;;;9.93;5.63;;;;;;;13.48;100.00;35286.72;5070956;28;20185;-59
2023/01/17 07:57:31;;;;;;;11.53;6.23;;;;;;;13.57;100.00;37564.34;5070903;28;20184;-61
2023/01/17 07:59:58;;;;;;;8.70;5.87;;;;;;;13.63;100.00;39517.78;5069263;28;20672;-60
2023/01/17 08:02:25;;;;;;;6.17;5.50;;;;;;;13.75;100.00;46683.19;5070525;28;20188;-59
2023/01/17 08:04:52;;;;;;;11.70;5.67;;;;;;;13.83;100.00;51579.78;5070648;28;20655;-60
2023/01/17 08:07:20;;;;;;;15.23;6.20;;;;;;;13.88;100.00;55174.34;5070835;28;20188;-61
2023/01/17 08:09:49;;;;;;;12.07;6.17;;;;;;;13.95;100.00;55834.84;5071170;28;20193;-60
2023/01/17 08:12:16;;;;;;;13.57;6.43;;;;;;;13.96;100.00;59104.28;5070837;28;20238;-61
2023/01/17 08:14:43;;;;;;;15.73;8.87;;;;;;;14.02;100.00;58783.41;5070758;28;20242;-60
2023/01/17 08:17:12;;;;;;;40.93;12.20;;;;;;;13.90;100.00;64005.78;5070852;28;20236;-60
2023/01/17 08:19:39;;;;;;;38.07;12.43;;;;;;;13.99;100.00;61724.56;5070652;28;20188;-59
2023/01/17 08:22:08;;;;;;;19.77;10.33;;;;;;;14.01;100.00;61071.66;5070725;28;20238;-60
2023/01/17 08:24:34;;;;;;;28.00;12.03;;;;;;;14.04;100.00;61075.34;5070829;28;20566;-60
2023/01/17 08:27:03;;;;;;;40.03;15.33;;;;;;;13.98;100.00;58452.38;5070653;28;20267;-60
2023/01/17 08:29:32;;;;;;;27.10;15.53;;;;;;;13.87;100.00;55500.47;5070920;28;20635;-61
2023/01/17 08:31:59;;;;;;;15.00;10.97;;;;;;;13.82;100.00;52883.97;5070604;28;20195;-60
2023/01/17 08:34:26;;;;;;;17.97;9.73;;;;;;;13.96;100.00;54529.28;5070596;28;20271;-61
2023/01/17 08:36:53;;;;;;;28.10;13.87;;;;;;;13.93;100.00;59428.25;5070386;28;20644;-60
2023/01/17 08:39:22;;;;;;;24.67;14.80;;;;;;;13.87;100.00;61057.44;5070468;28;20184;-60
2023/01/17 08:41:49;;;;;;;34.43;14.17;;;;;;;13.88;100.00;53868.72;5070867;28;20611;-60
2023/01/17 08:44:18;;;;;;;23.20;13.83;;;;;;;14.13;100.00;55198.75;5070665;28;20556;-60
2023/01/17 08:46:45;;;;;;;25.97;11.47;;;;;;;14.27;100.00;60771.72;5070523;28;20177;-61
2023/01/17 08:49:12;;;;;;;6.20;5.60;;;;;;;14.19;100.00;69283.44;5070292;28;20276;-60
2023/01/17 08:51:40;;;;;;;19.43;8.43;;;;;;;14.54;100.00;77541.72;5070569;28;20207;-60
2023/01/17 08:54:08;;;;;;;19.07;9.27;;;;;;;14.89;100.00;106685.50;5070322;28;20611;-60
2023/01/17 08:56:35;;;;;;;17.47;8.37;;;;;;;15.29;100.00;146460.38;5070760;28;20686;-61
2023/01/17 08:59:02;;;;;;;30.63;8.70;;;;;;;15.75;100.00;149996.78;5070569;28;20216;-60
2023/01/17 09:01:40;;;;;;;26.10;8.80;;;;;;;16.39;100.00;150156.72;5070235;28;20200;-60
2023/01/17 09:04:07;;;;;;;30.87;8.57;;;;;;;16.78;100.00;150254.56;5070598;28;20299;-60
2023/01/17 09:06:36;;;;;;;15.70;8.03;;;;;;;16.65;100.00;150222.81;5070230;28;20189;-59
2023/01/17 09:09:04;;;;;;;11.93;7.20;;;;;;;17.35;100.00;150399.38;5084277;28;20185;-61
2023/01/17 09:11:31;;;;;;;12.03;6.63;;;;;;;17.79;100.00;150510.00;5087081;28;20181;-61
2023/01/17 09:13:58;;;;;;;16.80;6.40;;;;;;;18.34;100.00;150646.03;5071283;28;20181;-60
2023/01/17 09:16:25;;;;;;;43.40;18.13;;;;;;;19.23;100.00;150871.22;5073743;28;20192;-60
2023/01/17 09:18:55;;;;;;;24.07;7.80;;;;;;;20.40;100.00;151166.66;5074049;28;20193;-60
2023/01/17 09:21:22;;;;;;;25.77;7.80;;;;;;;20.56;100.00;151206.13;5073985;28;20278;-61
2023/01/17 09:23:49;;;;;;;25.70;7.40;;;;;;;21.18;100.00;151362.84;5073766;28;20678;-61
2023/01/17 09:26:21;;;;;;;12.20;8.30;;;;;;;21.65;100.00;151480.09;5073623;28;20719;-61
2023/01/17 09:28:49;;;;;;;16.88;8.73;;;;;;;21.66;100.00;151483.94;5074109;28;20189;-60
2023/01/17 09:31:16;;;;;;;13.05;8.27;;;;;;;21.49;100.00;151439.31;5073898;28;20656;-63
2023/01/17 09:33:43;;;;;;;12.82;7.50;;;;;;;20.61;100.00;151218.88;5073810;28;20232;-62
2023/01/17 09:36:11;;;;;;;23.93;8.20;;;;;;;19.67;100.00;150982.00;5075905;28;20185;-61
2023/01/17 09:38:39;;;;;;;13.87;8.00;;;;;;;19.61;100.00;150966.72;5073351;28;20191;-62
2023/01/17 09:41:21;;;;;;;17.00;7.67;;;;;;;19.07;100.00;150831.78;5073349;28;20188;-61
2023/01/17 09:43:52;;;;;;;33.97;8.03;;;;;;;19.46;100.00;150928.56;5086229;28;20211;-61
2023/01/17 09:46:23;;;;;;;16.73;7.53;;;;;;;20.02;100.00;151071.13;5093511;28;20215;-61
2023/01/17 09:48:57;;;;;;;16.47;6.53;;;;;;;19.65;100.00;150976.88;5093743;28;20206;-62
2023/01/17 09:51:26;;;;;;;8.50;5.40;;;;;;;19.67;100.00;150980.72;5093599;28;20630;-62
2023/01/17 09:53:54;;;;;;;8.55;5.45;;;;;;;20.83;100.00;151274.94;5093182;28;20220;-62
2023/01/17 09:56:28;;;;;;;6.85;5.22;;;;;;;21.41;100.00;151421.50;5093540;28;20191;-62
2023/01/17 09:59:26;;;;;;;14.82;6.97;;;;;;;21.05;100.00;151329.66;5076011;28;20180;-63
2023/01/17 10:02:01;;;;;;;10.15;5.88;;;;;;;20.85;100.00;151278.72;5089099;28;20210;-62
2023/01/17 10:04:47;;;;;;;13.38;6.78;;;;;;;22.14;100.00;151603.81;5093399;28;20211;-62
2023/01/17 10:07:32;;;;;;;14.60;6.43;;;;;;;21.51;100.00;151445.72;5093269;28;20535;-62
2023/01/17 10:10:25;;;;;;;14.70;5.85;;;;;;;21.34;100.00;151403.63;5093397;28;20188;-62
2023/01/17 10:13:00;;;;;;;6.80;4.37;;;;;;;21.12;100.00;151347.59;5093081;28;20626;-62
2023/01/17 10:15:48;;;;;;;15.80;6.10;;;;;;;20.70;100.00;151241.81;5093496;28;20274;-62
2023/01/17 10:18:32;;;;;;;18.47;5.33;;;;;;;20.22;100.00;151120.75;5093123;28;20192;-63
2023/01/17 10:21:05;;;;;;;9.23;4.30;;;;;;;19.12;100.00;150843.25;5093199;28;20553;-62
2023/01/17 10:23:44;;;;;;;8.83;2.97;;;;;;;18.84;100.00;150772.03;5074579;28;20712;-61
2023/01/17 10:26:16;;;;;;;8.30;7.47;;;;;;;18.71;100.00;150740.22;5092155;28;20595;-61
2023/01/17 10:28:47;;;;;;;5.63;3.40;;;;;;;18.63;100.00;150721.13;5092769;28;20184;-61
2023/01/17 10:31:20;;;;;;;18.87;5.50;;;;;;;18.38;100.00;150657.47;5092767;28;20590;-60
2023/01/17 10:33:51;;;;;;;16.83;4.50;;;;;;;18.50;100.00;150686.75;5093133;28;20674;-61
2023/01/17 10:36:21;;;;;;;17.37;5.17;;;;;;;18.49;100.00;150685.50;5092648;28;20220;-60
2023/01/17 10:38:53;;;;;;;15.37;5.17;;;;;;;18.67;100.00;150731.28;5092493;28;20283;-61
2023/01/17 10:41:26;;;;;;;24.33;5.80;;;;;;;18.85;100.00;150774.53;5092460;28;20216;-61
2023/01/17 10:44:04;;;;;;;14.67;4.43;;;;;;;19.23;100.00;150871.22;5092579;28;20211;-60
2023/01/17 10:46:37;;;;;;;24.97;4.80;;;;;;;19.69;100.00;150985.84;5092428;28;20604;-61
2023/01/17 10:49:04;;;;;;;9.43;4.47;;;;;;;20.89;100.00;151288.91;5092103;28;20180;-60
2023/01/17 10:51:58;;;;;;;10.98;7.00;;;;;;;21.88;100.00;151538.75;5092209;28;20188;-62
2023/01/17 10:54:43;;;;;;;6.05;3.75;;;;;;;23.12;100.00;151852.56;5092430;28;20180;-61
2023/01/17 10:57:14;;;;;;;4.72;3.05;;;;;;;23.57;100.00;151964.91;5092034;28;20191;-61
2023/01/17 10:59:42;;;;;;;5.18;2.88;;;;;;;24.53;100.00;152208.75;5091940;28;20184;-61
2023/01/17 11:02:20;;;;;;;6.90;3.13;;;;;;;26.54;88.33;152716.25;5091657;28;20206;-61
2023/01/17 11:04:50;;;;;;;10.07;4.45;;;;;;;26.40;89.60;152679.13;5091504;28;20203;-61
2023/01/17 11:07:20;;;;;;;3.85;3.33;;;;;;;25.76;90.48;152519.31;5091682;28;20195;-61
2023/01/17 11:09:50;;;;;;;7.57;4.47;;;;;;;26.06;87.76;152593.44;5091644;28;20208;-61
2023/01/17 11:12:26;;;;;;;4.95;2.70;;;;;;;25.31;89.18;152404.25;5091994;28;20184;-63
2023/01/17 11:15:05;;;;;;;7.95;4.82;;;;;;;25.78;87.90;152524.44;5091656;28;20190;-61
2023/01/17 11:17:33;;;;;;;11.02;4.20;;;;;;;25.55;91.23;152465.63;5091573;28;20180;-61
2023/01/17 11:20:14;;;;;;;12.10;4.03;;;;;;;25.22;92.38;152381.25;5091491;28;20184;-61
2023/01/17 11:22:46;;;;;;;5.88;3.92;;;;;;;24.03;99.77;152082.31;5091480;28;20192;-61
2023/01/17 11:25:22;;;;;;;24.90;4.63;;;;;;;23.59;100.00;151971.25;5091373;28;20204;-61
2023/01/17 11:27:59;;;;;;;7.00;4.25;;;;;;;22.72;100.00;151750.50;5091379;28;20237;-62
2023/01/17 11:30:28;;;;;;;4.65;3.72;;;;;;;21.15;100.00;151355.22;5091427;28;20644;-62
2023/01/17 11:32:56;;;;;;;8.53;3.70;;;;;;;20.55;100.00;151202.28;5091225;28;20287;-61
2023/01/17 11:35:27;;;;;;;13.70;3.90;;;;;;;19.95;100.00;151052.00;5091077;28;20234;-60
2023/01/17 11:38:03;;;;;;;8.37;2.80;;;;;;;19.64;100.00;150973.09;5090314;28;20184;-61
2023/01/17 11:40:36;;;;;;;8.73;2.30;;;;;;;19.83;100.00;151022.72;5091433;28;20592;-60
2023/01/17 11:43:17;;;;;;;6.97;2.80;;;;;;;20.03;100.00;151072.34;5091566;28;20199;-60
2023/01/17 11:45:45;;;;;;;6.87;2.10;;;;;;;19.49;100.00;150937.44;5091196;28;20208;-61
2023/01/17 11:48:15;;;;;;;3.27;1.90;;;;;;;19.05;100.00;150825.44;5091517;28;20527;-61
2023/01/17 11:50:51;;;;;;;3.57;2.03;;;;;;;18.91;100.00;150789.81;5091260;28;20211;-61
2023/01/17 11:53:24;;;;;;;4.60;1.83;;;;;;;18.63;100.00;150719.84;5091654;28;20614;-61
2023/01/17 11:56:06;;;;;;;3.63;3.10;;;;;;;18.80;100.00;150761.84;5091392;28;20653;-62
2023/01/17 11:58:35;;;;;;;5.00;3.03;;;;;;;18.81;100.00;150765.63;5091005;28;20188;-61
2023/01/17 12:01:18;;;;;;;4.17;2.37;;;;;;;18.86;100.00;150777.09;5091334;28;20623;-61
2023/01/17 12:04:09;;;;;;;4.53;2.50;;;;;;;18.62;100.00;150718.59;5090800;28;20195;-60
2023/01/17 12:06:45;;;;;;;4.20;2.00;;;;;;;18.70;100.00;150738.94;5090500;28;20194;-61
2023/01/17 12:09:22;;;;;;;4.10;2.17;;;;;;;18.72;100.00;150742.72;5090092;28;20563;-61
2023/01/17 12:14:57;;;;;;;3.90;1.73;;;;;;;18.55;100.00;150700.75;5090654;28;20669;-65
2023/01/17 12:17:35;;;;;;;4.33;2.27;;;;;;;18.33;100.00;150644.75;5090960;28;20200;-61
2023/01/17 12:20:04;;;;;;;7.60;2.97;;;;;;;18.36;100.00;150651.13;5090868;28;20184;-60
2023/01/17 12:23:05;;;;;;;4.00;2.10;;;;;;;18.15;100.00;150600.28;5090947;28;20206;-61
2023/01/17 12:25:54;;;;;;;11.37;10.10;;;;;;;18.14;100.00;150597.75;5090647;28;20649;-60
2023/01/17 12:28:56;;;;;;;5.13;1.77;;;;;;;18.05;100.00;150573.56;5090531;28;20610;-62
2023/01/17 12:31:33;;;;;;;11.17;2.20;;;;;;;17.93;100.00;150543.06;5107973;28;20673;-59
2023/01/17 12:34:13;;;;;;;7.60;2.27;;;;;;;17.87;100.00;150527.78;5110646;28;20230;-60
2023/01/17 12:36:46;;;;;;;3.33;2.00;;;;;;;17.86;100.00;150526.56;5111321;28;20268;-60
2023/01/17 12:39:16;;;;;;;5.83;2.80;;;;;;;17.91;100.00;150538.00;5110808;28;20192;-61
2023/01/17 12:41:59;;;;;;;4.77;4.47;;;;;;;17.83;100.00;150517.63;5110721;28;20223;-61
2023/01/17 12:44:47;;;;;;;5.10;2.53;;;;;;;17.80;100.00;150512.56;5109818;28;20199;-60
2023/01/17 12:47:16;;;;;;;3.33;2.20;;;;;;;17.75;100.00;150499.84;5109392;28;20697;-61
2023/01/17 12:49:48;;;;;;;2.80;2.53;;;;;;;17.73;100.00;150494.78;5113021;28;20187;-63
2023/01/17 12:52:23;;;;;;;3.60;2.80;;;;;;;17.74;100.00;150497.28;5114321;28;20191;-64
2023/01/17 12:54:57;;;;;;;3.47;2.83;;;;;;;17.75;100.00;150499.84;5093303;28;20191;-62
2023/01/17 12:57:29;;;;;;;10.50;7.83;;;;;;;17.74;100.00;150496.03;5087643;28;20191;-63